createdAt,value
2022-09-26T00:00:38.681Z,7.43
2022-09-26T00:01:38.703Z,7.43
2022-09-26T00:02:38.686Z,7.42
2022-09-26T00:03:38.619Z,7.41
2022-09-26T00:04:38.643Z,7.41
2022-09-26T00:05:38.590Z,7.41
2022-09-26T00:06:38.587Z,7.41
2022-09-26T00:07:38.581Z,7.42
2022-09-26T00:08:38.564Z,7.42
2022-09-26T00:09:38.556Z,7.43
2022-09-26T00:10:38.560Z,7.43
2022-09-26T00:11:38.525Z,7.44
2022-09-26T00:12:38.543Z,7.44
2022-09-26T00:13:38.505Z,7.44
2022-09-26T00:14:38.521Z,7.45
2022-09-26T00:15:38.467Z,7.45
2022-09-26T00:16:38.597Z,7.46
2022-09-26T00:17:38.467Z,7.46
2022-09-26T00:18:38.441Z,7.46
2022-09-26T00:19:38.436Z,7.46
2022-09-26T00:20:38.421Z,7.46
2022-09-26T00:21:38.392Z,7.46
2022-09-26T00:22:38.391Z,7.45
2022-09-26T00:23:38.403Z,7.45
2022-09-26T00:24:38.407Z,7.45
2022-09-26T00:25:38.350Z,7.44
2022-09-26T00:26:38.356Z,7.43
2022-09-26T00:27:38.347Z,7.42
2022-09-26T00:28:38.336Z,7.42
2022-09-26T00:29:38.321Z,7.41
2022-09-26T00:30:38.403Z,7.41
2022-09-26T00:31:38.295Z,7.41
2022-09-26T00:32:38.281Z,7.40
2022-09-26T00:33:38.299Z,7.39
2022-09-26T00:34:38.278Z,7.38
2022-09-26T00:35:38.241Z,7.38
2022-09-26T00:36:38.965Z,7.39
2022-09-26T00:37:38.228Z,7.39
2022-09-26T00:38:38.209Z,7.39
2022-09-26T00:39:38.204Z,7.39
2022-09-26T00:40:38.233Z,7.39
2022-09-26T00:41:38.230Z,7.40
2022-09-26T00:42:38.170Z,7.41
2022-09-26T00:43:38.163Z,7.42
2022-09-26T00:44:38.156Z,7.43
2022-09-26T00:45:38.180Z,7.44
2022-09-26T00:46:38.151Z,7.45
2022-09-26T00:47:38.114Z,7.47
2022-09-26T00:48:38.097Z,7.48
2022-09-26T00:49:38.084Z,7.50
2022-09-26T00:50:38.077Z,7.51
2022-09-26T00:51:38.052Z,7.52
2022-09-26T00:52:38.064Z,7.53
2022-09-26T00:53:38.038Z,7.54
2022-09-26T00:54:38.039Z,7.55
2022-09-26T00:55:38.020Z,7.56
2022-09-26T00:56:38.010Z,7.57
2022-09-26T00:57:38.017Z,7.58
2022-09-26T00:58:37.993Z,7.58
2022-09-26T00:59:37.964Z,7.59
2022-09-26T01:00:42.090Z,7.59
2022-09-26T01:01:38.026Z,7.60
2022-09-26T01:02:38.082Z,7.61
2022-09-26T01:03:37.923Z,7.63
2022-09-26T01:04:37.926Z,7.63
2022-09-26T01:05:37.894Z,7.64
2022-09-26T01:06:37.962Z,7.65
2022-09-26T01:07:37.904Z,7.66
2022-09-26T01:08:37.861Z,7.66
2022-09-26T01:09:37.866Z,7.67
2022-09-26T01:10:37.848Z,7.68
2022-09-26T01:11:37.891Z,7.69
2022-09-26T01:12:37.823Z,7.70
2022-09-26T01:13:37.839Z,7.71
2022-09-26T01:14:37.799Z,7.73
2022-09-26T01:15:37.797Z,7.74
2022-09-26T01:16:37.838Z,7.75
2022-09-26T01:17:37.754Z,7.76
2022-09-26T01:18:37.784Z,7.78
2022-09-26T01:19:37.776Z,7.79
2022-09-26T01:20:37.738Z,7.81
2022-09-26T01:21:37.714Z,7.83
2022-09-26T01:22:37.713Z,7.84
2022-09-26T01:23:37.716Z,7.86
2022-09-26T01:24:37.685Z,7.88
2022-09-26T01:25:37.676Z,7.90
2022-09-26T01:26:37.676Z,7.92
2022-09-26T01:27:37.649Z,7.94
2022-09-26T01:28:37.665Z,7.96
2022-09-26T01:29:37.647Z,7.97
2022-09-26T01:30:37.684Z,7.99
2022-09-26T01:31:37.604Z,8.01
2022-09-26T01:32:37.601Z,8.02
2022-09-26T01:33:37.595Z,8.03
2022-09-26T01:34:37.574Z,8.05
2022-09-26T01:35:37.583Z,8.07
2022-09-26T01:36:37.604Z,8.08
2022-09-26T01:37:37.554Z,8.10
2022-09-26T01:38:37.536Z,8.12
2022-09-26T01:39:37.524Z,8.14
2022-09-26T01:40:37.561Z,8.16
2022-09-26T01:41:37.518Z,8.18
2022-09-26T01:42:37.506Z,8.19
2022-09-26T01:43:37.467Z,8.21
2022-09-26T01:44:37.469Z,8.23
2022-09-26T01:45:37.478Z,8.25
2022-09-26T01:46:37.463Z,8.27
2022-09-26T01:47:37.433Z,8.30
2022-09-26T01:48:37.420Z,8.32
2022-09-26T01:49:37.426Z,8.34
2022-09-26T01:50:37.387Z,8.36
2022-09-26T01:51:37.394Z,8.39
2022-09-26T01:52:37.384Z,8.41
2022-09-26T01:53:37.369Z,8.44
2022-09-26T01:54:37.361Z,8.46
2022-09-26T01:55:37.342Z,8.48
2022-09-26T01:56:37.348Z,8.50
2022-09-26T01:57:37.324Z,8.52
2022-09-26T01:58:37.319Z,8.54
2022-09-26T01:59:37.293Z,8.56
2022-09-26T02:00:37.280Z,8.58
2022-09-26T02:01:37.440Z,8.60
2022-09-26T02:02:37.430Z,8.62
2022-09-26T02:03:37.259Z,8.64
2022-09-26T02:04:37.269Z,8.66
2022-09-26T02:05:37.258Z,8.67
2022-09-26T02:06:37.227Z,8.69
2022-09-26T02:07:37.226Z,8.70
2022-09-26T02:08:37.210Z,8.71
2022-09-26T02:09:37.179Z,8.72
2022-09-26T02:10:37.169Z,8.73
2022-09-26T02:11:37.152Z,8.73
2022-09-26T02:12:37.171Z,8.73
2022-09-26T02:13:37.127Z,8.74
2022-09-26T02:14:37.142Z,8.74
2022-09-26T02:15:37.113Z,8.74
2022-09-26T02:16:37.197Z,8.73
2022-09-26T02:17:37.099Z,8.72
2022-09-26T02:18:37.075Z,8.71
2022-09-26T02:19:37.073Z,8.70
2022-09-26T02:20:37.048Z,8.69
2022-09-26T02:21:37.065Z,8.69
2022-09-26T02:22:37.070Z,8.70
2022-09-26T02:23:37.022Z,8.70
2022-09-26T02:24:37.008Z,8.70
2022-09-26T02:25:37.009Z,8.71
2022-09-26T02:26:37.088Z,8.71
2022-09-26T02:27:36.995Z,8.71
2022-09-26T02:28:36.996Z,8.71
2022-09-26T02:29:36.947Z,8.71
2022-09-26T02:30:36.949Z,8.70
2022-09-26T02:31:37.040Z,8.70
2022-09-26T02:32:36.919Z,8.70
2022-09-26T02:33:36.929Z,8.71
2022-09-26T02:34:36.898Z,8.71
2022-09-26T02:35:36.873Z,8.71
2022-09-26T02:36:36.881Z,8.71
2022-09-26T02:37:36.875Z,8.70
2022-09-26T02:38:36.866Z,8.69
2022-09-26T02:39:36.849Z,8.69
2022-09-26T02:40:36.918Z,8.69
2022-09-26T02:41:36.811Z,8.70
2022-09-26T02:42:36.808Z,8.71
2022-09-26T02:43:36.797Z,8.72
2022-09-26T02:44:36.814Z,8.72
2022-09-26T02:45:36.816Z,8.72
2022-09-26T02:46:36.848Z,8.72
2022-09-26T02:47:36.731Z,8.74
2022-09-26T02:48:36.739Z,8.75
2022-09-26T02:49:36.750Z,8.76
2022-09-26T02:50:36.709Z,8.76
2022-09-26T02:51:36.710Z,8.76
2022-09-26T02:52:36.679Z,8.77
2022-09-26T02:53:36.680Z,8.78
2022-09-26T02:54:36.683Z,8.79
2022-09-26T02:55:36.663Z,8.80
2022-09-26T02:56:36.653Z,8.81
2022-09-26T02:57:36.631Z,8.81
2022-09-26T02:58:36.619Z,8.81
2022-09-26T02:59:36.620Z,8.82
2022-09-26T03:00:36.621Z,8.82
2022-09-26T03:01:36.781Z,8.82
2022-09-26T03:02:36.575Z,8.82
2022-09-26T03:03:36.632Z,8.82
2022-09-26T03:04:36.596Z,8.82
2022-09-26T03:05:36.566Z,8.82
2022-09-26T03:06:36.541Z,8.82
2022-09-26T03:07:36.546Z,8.83
2022-09-26T03:08:36.519Z,8.84
2022-09-26T03:09:36.493Z,8.84
2022-09-26T03:10:36.480Z,8.84
2022-09-26T03:11:36.482Z,8.84
2022-09-26T03:12:36.454Z,8.84
2022-09-26T03:13:36.456Z,8.84
2022-09-26T03:14:36.432Z,8.84
2022-09-26T03:15:36.431Z,8.84
2022-09-26T03:16:36.565Z,8.83
2022-09-26T03:17:36.402Z,8.83
2022-09-26T03:18:36.391Z,8.83
2022-09-26T03:19:36.395Z,8.83
2022-09-26T03:20:36.364Z,8.83
2022-09-26T03:21:37.323Z,8.83
2022-09-26T03:22:36.346Z,8.83
2022-09-26T03:23:36.353Z,8.83
2022-09-26T03:24:36.327Z,8.84
2022-09-26T03:25:36.324Z,8.84
2022-09-26T03:26:36.292Z,8.83
2022-09-26T03:27:36.304Z,8.83
2022-09-26T03:28:37.975Z,8.83
2022-09-26T03:29:36.286Z,8.83
2022-09-26T03:30:36.253Z,8.83
2022-09-26T03:31:36.321Z,8.84
2022-09-26T03:32:36.241Z,8.84
2022-09-26T03:33:36.289Z,8.84
2022-09-26T03:34:36.246Z,8.84
2022-09-26T03:35:36.194Z,8.84
2022-09-26T03:36:36.189Z,8.83
2022-09-26T03:37:36.182Z,8.82
2022-09-26T03:38:36.178Z,8.82
2022-09-26T03:39:36.156Z,8.81
2022-09-26T03:40:36.237Z,8.81
2022-09-26T03:41:36.132Z,8.81
2022-09-26T03:42:36.139Z,8.81
2022-09-26T03:43:36.113Z,8.80
2022-09-26T03:44:36.095Z,8.79
2022-09-26T03:45:36.128Z,8.79
2022-09-26T03:46:39.814Z,8.78
2022-09-26T03:47:36.068Z,8.77
2022-09-26T03:48:36.087Z,8.77
2022-09-26T03:49:36.056Z,8.76
2022-09-26T03:50:36.033Z,8.76
2022-09-26T03:51:36.022Z,8.75
2022-09-26T03:52:36.002Z,8.73
2022-09-26T03:53:35.994Z,8.72
2022-09-26T03:54:35.976Z,8.72
2022-09-26T03:55:35.986Z,8.70
2022-09-26T03:56:35.989Z,8.69
2022-09-26T03:57:35.959Z,8.68
2022-09-26T03:58:35.929Z,8.67
2022-09-26T03:59:35.936Z,8.67
2022-09-26T04:00:35.987Z,8.66
2022-09-26T04:01:35.919Z,8.66
2022-09-26T04:02:35.965Z,8.66
2022-09-26T04:03:35.883Z,8.65
2022-09-26T04:04:35.864Z,8.64
2022-09-26T04:05:35.891Z,8.63
2022-09-26T04:06:35.855Z,8.63
2022-09-26T04:07:35.836Z,8.63
2022-09-26T04:08:35.832Z,8.62
2022-09-26T04:09:35.817Z,8.62
2022-09-26T04:10:35.811Z,8.61
2022-09-26T04:11:35.846Z,8.61
2022-09-26T04:12:35.783Z,8.60
2022-09-26T04:13:52.770Z,8.60
2022-09-26T04:14:36.749Z,8.59
2022-09-26T04:15:35.778Z,8.58
2022-09-26T04:16:35.842Z,8.57
2022-09-26T04:17:35.715Z,8.56
2022-09-26T04:18:35.718Z,8.55
2022-09-26T04:19:35.723Z,8.55
2022-09-26T04:20:35.718Z,8.54
2022-09-26T04:21:35.747Z,8.53
2022-09-26T04:22:35.669Z,8.53
2022-09-26T04:23:35.658Z,8.52
2022-09-26T04:24:35.651Z,8.51
2022-09-26T04:25:35.644Z,8.51
2022-09-26T04:26:35.647Z,8.50
2022-09-26T04:27:35.611Z,8.49
2022-09-26T04:28:35.598Z,8.48
2022-09-26T04:29:35.576Z,8.47
2022-09-26T04:30:35.575Z,8.45
2022-09-26T04:31:35.643Z,8.43
2022-09-26T04:32:35.563Z,8.42
2022-09-26T04:33:35.537Z,8.41
2022-09-26T04:34:35.527Z,8.39
2022-09-26T04:35:35.516Z,8.38
2022-09-26T04:36:35.513Z,8.37
2022-09-26T04:37:35.517Z,8.35
2022-09-26T04:38:35.482Z,8.34
2022-09-26T04:39:35.467Z,8.32
2022-09-26T04:40:38.360Z,8.31
2022-09-26T04:41:36.458Z,8.29
2022-09-26T04:42:35.451Z,8.28
2022-09-26T04:43:35.467Z,8.26
2022-09-26T04:44:35.421Z,8.25
2022-09-26T04:45:35.476Z,8.23
2022-09-26T04:46:35.493Z,8.21
2022-09-26T04:47:35.390Z,8.20
2022-09-26T04:48:35.387Z,8.18
2022-09-26T04:49:35.368Z,8.17
2022-09-26T04:50:35.339Z,8.16
2022-09-26T04:51:35.370Z,8.15
2022-09-26T04:52:35.326Z,8.14
2022-09-26T04:53:35.324Z,8.13
2022-09-26T04:54:35.321Z,8.11
2022-09-26T04:55:35.300Z,8.10
2022-09-26T04:56:35.329Z,8.10
2022-09-26T04:57:35.258Z,8.09
2022-09-26T04:58:35.262Z,8.09
2022-09-26T04:59:35.272Z,8.08
2022-09-26T05:00:35.273Z,8.08
2022-09-26T05:01:35.385Z,8.08
2022-09-26T05:02:35.269Z,8.08
2022-09-26T05:03:35.220Z,8.08
2022-09-26T05:04:35.220Z,8.09
2022-09-26T05:05:35.187Z,8.09
2022-09-26T05:06:35.182Z,8.09
2022-09-26T05:07:35.158Z,8.09
2022-09-26T05:08:35.155Z,8.09
2022-09-26T05:09:36.292Z,8.09
2022-09-26T05:10:35.119Z,8.10
2022-09-26T05:11:35.147Z,8.11
2022-09-26T05:12:35.091Z,8.13
2022-09-26T05:13:35.080Z,8.14
2022-09-26T05:14:35.093Z,8.16
2022-09-26T05:15:35.071Z,8.17
2022-09-26T05:16:35.128Z,8.17
2022-09-26T05:17:35.049Z,8.17
2022-09-26T05:18:35.030Z,8.18
2022-09-26T05:19:35.034Z,8.18
2022-09-26T05:20:35.028Z,8.18
2022-09-26T05:21:35.017Z,8.18
2022-09-26T05:22:35.002Z,8.18
2022-09-26T05:23:34.979Z,8.19
2022-09-26T05:24:34.992Z,8.20
2022-09-26T05:25:34.950Z,8.21
2022-09-26T05:26:34.960Z,8.22
2022-09-26T05:27:34.943Z,8.23
2022-09-26T05:28:34.929Z,8.24
2022-09-26T05:29:34.898Z,8.24
2022-09-26T05:30:34.909Z,8.24
2022-09-26T05:31:35.082Z,8.25
2022-09-26T05:32:34.868Z,8.25
2022-09-26T05:33:34.874Z,8.25
2022-09-26T05:34:34.845Z,8.25
2022-09-26T05:35:34.890Z,8.26
2022-09-26T05:36:34.821Z,8.28
2022-09-26T05:37:34.811Z,8.29
2022-09-26T05:38:34.807Z,8.31
2022-09-26T05:39:38.934Z,8.32
2022-09-26T05:40:35.832Z,8.33
2022-09-26T05:41:34.771Z,8.34
2022-09-26T05:42:34.764Z,8.35
2022-09-26T05:43:34.759Z,8.35
2022-09-26T05:44:34.744Z,8.36
2022-09-26T05:45:34.745Z,8.38
2022-09-26T05:46:34.812Z,8.39
2022-09-26T05:47:34.704Z,8.41
2022-09-26T05:48:34.748Z,8.42
2022-09-26T05:49:34.692Z,8.43
2022-09-26T05:50:34.688Z,8.44
2022-09-26T05:51:34.696Z,8.44
2022-09-26T05:52:34.653Z,8.44
2022-09-26T05:53:34.632Z,8.46
2022-09-26T05:54:34.622Z,8.47
2022-09-26T05:55:34.610Z,8.48
2022-09-26T05:56:34.636Z,8.49
2022-09-26T05:57:34.635Z,8.50
2022-09-26T05:58:34.600Z,8.50
2022-09-26T05:59:34.593Z,8.52
2022-09-26T06:00:34.606Z,8.53
2022-09-26T06:01:34.817Z,8.55
2022-09-26T06:02:34.602Z,8.56
2022-09-26T06:03:34.553Z,8.58
2022-09-26T06:04:34.515Z,8.59
2022-09-26T06:05:34.504Z,8.60
2022-09-26T06:06:34.555Z,8.61
2022-09-26T06:07:34.490Z,8.63
2022-09-26T06:08:34.500Z,8.65
2022-09-26T06:09:34.464Z,8.66
2022-09-26T06:10:34.445Z,8.68
2022-09-26T06:11:34.519Z,8.68
2022-09-26T06:12:34.428Z,8.69
2022-09-26T06:13:34.425Z,8.70
2022-09-26T06:14:34.420Z,8.71
2022-09-26T06:15:34.384Z,8.72
2022-09-26T06:16:34.542Z,8.75
2022-09-26T06:17:34.376Z,8.77
2022-09-26T06:18:34.368Z,8.79
2022-09-26T06:19:34.366Z,8.80
2022-09-26T06:20:34.329Z,8.82
2022-09-26T06:21:34.398Z,8.83
2022-09-26T06:22:34.325Z,8.84
2022-09-26T06:23:34.310Z,8.86
2022-09-26T06:24:34.303Z,8.87
2022-09-26T06:25:34.297Z,8.89
2022-09-26T06:26:34.274Z,8.90
2022-09-26T06:27:34.279Z,8.91
2022-09-26T06:28:34.319Z,8.92
2022-09-26T06:29:34.241Z,8.92
2022-09-26T06:30:34.282Z,8.92
2022-09-26T06:31:34.336Z,8.91
2022-09-26T06:32:34.206Z,8.91
2022-09-26T06:33:34.178Z,8.91
2022-09-26T06:34:34.181Z,8.92
2022-09-26T06:35:34.183Z,8.92
2022-09-26T06:36:34.151Z,8.92
2022-09-26T06:37:34.154Z,8.92
2022-09-26T06:38:34.113Z,8.92
2022-09-26T06:39:34.128Z,8.93
2022-09-26T06:40:34.233Z,8.93
2022-09-26T06:41:34.141Z,8.94
2022-09-26T06:42:34.091Z,8.95
2022-09-26T06:43:34.070Z,8.96
2022-09-26T06:44:34.067Z,8.97
2022-09-26T06:45:34.060Z,8.98
2022-09-26T06:46:34.155Z,8.99
2022-09-26T06:47:34.032Z,9.01
2022-09-26T06:48:34.016Z,9.02
2022-09-26T06:49:33.999Z,9.04
2022-09-26T06:50:33.998Z,9.07
2022-09-26T06:51:34.020Z,9.09
2022-09-26T06:52:33.970Z,9.10
2022-09-26T06:53:33.955Z,9.12
2022-09-26T06:54:33.947Z,9.14
2022-09-26T06:55:33.937Z,9.16
2022-09-26T06:56:33.923Z,9.18
2022-09-26T06:57:33.926Z,9.20
2022-09-26T06:58:33.899Z,9.22
2022-09-26T06:59:33.897Z,9.23
2022-09-26T07:00:33.903Z,9.23
2022-09-26T07:01:34.022Z,9.25
2022-09-26T07:02:33.865Z,9.26
2022-09-26T07:03:33.859Z,9.28
2022-09-26T07:04:33.829Z,9.30
2022-09-26T07:05:33.827Z,9.31
2022-09-26T07:06:33.797Z,9.33
2022-09-26T07:07:33.799Z,9.36
2022-09-26T07:08:57.835Z,9.38
2022-09-26T07:09:34.772Z,9.41
2022-09-26T07:10:33.773Z,9.45
2022-09-26T07:12:34.739Z,9.53
2022-09-26T07:13:33.741Z,9.57
2022-09-26T07:14:33.725Z,9.61
2022-09-26T07:15:33.703Z,9.65
2022-09-26T07:16:33.749Z,9.69
2022-09-26T07:17:33.688Z,9.72
2022-09-26T07:18:33.674Z,9.75
2022-09-26T07:19:33.683Z,9.78
2022-09-26T07:20:33.651Z,9.81
2022-09-26T07:21:33.685Z,9.84
2022-09-26T07:22:33.623Z,9.88
2022-09-26T07:23:33.609Z,9.90
2022-09-26T07:24:33.628Z,9.92
2022-09-26T07:25:33.670Z,9.95
2022-09-26T07:26:33.586Z,9.98
2022-09-26T07:27:33.570Z,10.01
2022-09-26T07:28:33.552Z,10.05
2022-09-26T07:29:33.544Z,10.09
2022-09-26T07:30:33.545Z,10.13
2022-09-26T07:31:33.664Z,10.17
2022-09-26T07:32:33.509Z,10.21
2022-09-26T07:33:33.502Z,10.24
2022-09-26T07:34:33.479Z,10.27
2022-09-26T07:35:33.504Z,10.31
2022-09-26T07:36:33.474Z,10.36
2022-09-26T07:37:33.457Z,10.42
2022-09-26T07:38:33.440Z,10.54
2022-09-26T07:39:33.425Z,10.70
2022-09-26T07:40:33.499Z,10.88
2022-09-26T07:41:33.526Z,11.06
2022-09-26T07:42:33.390Z,11.25
2022-09-26T07:44:19.196Z,11.44
2022-09-26T07:45:20.394Z,11.62
2022-09-26T07:45:34.596Z,11.79
2022-09-26T07:46:33.474Z,11.94
2022-09-26T07:47:33.388Z,12.05
2022-09-26T07:48:33.331Z,12.12
2022-09-26T07:49:33.316Z,12.18
2022-09-26T07:50:33.307Z,12.24
2022-09-26T07:51:33.339Z,12.32
2022-09-26T07:52:33.295Z,12.40
2022-09-26T07:53:33.273Z,12.42
2022-09-26T07:54:33.261Z,12.41
2022-09-26T07:55:33.263Z,12.39
2022-09-26T07:56:33.257Z,12.37
2022-09-26T07:57:33.235Z,12.36
2022-09-26T07:58:33.210Z,12.34
2022-09-26T07:59:33.197Z,12.30
2022-09-26T08:00:33.193Z,12.26
2022-09-26T08:01:33.350Z,12.22
2022-09-26T08:02:33.363Z,12.18
2022-09-26T08:03:33.148Z,12.16
2022-09-26T08:04:33.142Z,12.14
2022-09-26T08:05:33.145Z,12.14
2022-09-26T08:06:33.207Z,12.14
2022-09-26T08:07:33.123Z,12.15
2022-09-26T08:08:33.167Z,12.17
2022-09-26T08:09:33.078Z,12.19
2022-09-26T08:10:33.067Z,12.19
2022-09-26T08:11:33.095Z,12.19
2022-09-26T08:12:33.047Z,12.17
2022-09-26T08:13:33.068Z,12.15
2022-09-26T08:14:33.027Z,12.12
2022-09-26T08:15:33.014Z,12.10
2022-09-26T08:16:33.103Z,12.07
2022-09-26T08:17:32.986Z,12.06
2022-09-26T08:18:33.004Z,12.07
2022-09-26T08:19:32.955Z,12.06
2022-09-26T08:20:32.975Z,12.06
2022-09-26T08:21:32.933Z,12.07
2022-09-26T08:22:32.964Z,12.08
2022-09-26T08:23:32.921Z,12.08
2022-09-26T08:24:32.907Z,12.09
2022-09-26T08:25:32.906Z,12.11
2022-09-26T08:26:32.885Z,12.14
2022-09-26T08:27:32.887Z,12.18
2022-09-26T08:28:32.899Z,12.21
2022-09-26T08:29:32.857Z,12.24
2022-09-26T08:30:32.841Z,12.27
2022-09-26T08:31:32.942Z,12.31
2022-09-26T08:32:32.829Z,12.35
2022-09-26T08:33:32.812Z,12.39
2022-09-26T08:34:32.839Z,12.43
2022-09-26T08:35:32.775Z,12.45
2022-09-26T08:36:32.781Z,12.46
2022-09-26T08:37:32.756Z,12.48
2022-09-26T08:38:32.757Z,12.52
2022-09-26T08:39:33.640Z,12.57
2022-09-26T08:40:32.817Z,12.61
2022-09-26T08:41:32.760Z,12.66
2022-09-26T08:42:32.707Z,12.71
2022-09-26T08:43:32.700Z,12.76
2022-09-26T08:44:32.701Z,12.78
2022-09-26T08:45:32.666Z,12.81
2022-09-26T08:46:32.743Z,12.83
2022-09-26T08:47:32.639Z,12.86
2022-09-26T08:48:32.633Z,12.90
2022-09-26T08:49:32.641Z,12.94
2022-09-26T08:50:32.659Z,12.98
2022-09-26T08:51:32.594Z,13.00
2022-09-26T08:52:32.586Z,13.01
2022-09-26T08:53:32.596Z,13.02
2022-09-26T08:54:32.570Z,13.03
2022-09-26T08:55:32.573Z,13.04
2022-09-26T08:56:32.539Z,13.05
2022-09-26T08:57:32.600Z,13.06
2022-09-26T08:58:32.533Z,13.08
2022-09-26T08:59:32.516Z,13.09
2022-09-26T09:00:32.508Z,13.09
2022-09-26T09:01:32.546Z,13.09
2022-09-26T09:02:32.583Z,13.09
2022-09-26T09:03:32.485Z,13.10
2022-09-26T09:04:32.458Z,13.11
2022-09-26T09:05:32.457Z,13.11
2022-09-26T09:06:32.434Z,13.10
2022-09-26T09:07:32.428Z,13.07
2022-09-26T09:08:32.393Z,13.03
2022-09-26T09:09:32.389Z,12.99
2022-09-26T09:10:32.391Z,12.96
2022-09-26T09:11:32.373Z,12.93
2022-09-26T09:12:32.590Z,12.91
2022-09-26T09:13:32.329Z,12.89
2022-09-26T09:14:32.350Z,12.87
2022-09-26T09:15:32.321Z,12.84
2022-09-26T09:16:32.378Z,12.83
2022-09-26T09:17:32.298Z,12.82
2022-09-26T09:18:32.298Z,12.81
2022-09-26T09:19:32.277Z,12.78
2022-09-26T09:20:32.274Z,12.75
2022-09-26T09:21:32.266Z,12.72
2022-09-26T09:22:32.243Z,12.70
2022-09-26T09:23:32.234Z,12.68
2022-09-26T09:24:32.224Z,12.67
2022-09-26T09:25:32.214Z,12.65
2022-09-26T09:28:33.196Z,12.62
2022-09-26T09:29:32.195Z,12.61
2022-09-26T09:30:32.193Z,12.61
2022-09-26T09:31:32.189Z,12.61
2022-09-26T09:32:32.142Z,12.61
2022-09-26T09:33:32.121Z,12.61
2022-09-26T09:34:32.107Z,12.61
2022-09-26T09:35:32.084Z,12.61
2022-09-26T09:36:32.101Z,12.62
2022-09-26T09:37:32.085Z,12.62
2022-09-26T09:38:32.057Z,12.63
2022-09-26T09:39:32.047Z,12.63
2022-09-26T09:40:32.077Z,12.63
2022-09-26T09:41:32.018Z,12.63
2022-09-26T09:42:32.024Z,12.62
2022-09-26T09:43:32.007Z,12.62
2022-09-26T09:44:31.983Z,12.61
2022-09-26T09:45:31.967Z,12.60
2022-09-26T09:46:32.051Z,12.59
2022-09-26T09:47:31.949Z,12.57
2022-09-26T09:48:31.950Z,12.56
2022-09-26T09:49:31.943Z,12.56
2022-09-26T09:50:31.930Z,12.55
2022-09-26T09:51:35.562Z,12.55
2022-09-26T09:52:32.887Z,12.55
2022-09-26T09:53:31.879Z,12.56
2022-09-26T09:54:31.898Z,12.55
2022-09-26T09:55:31.860Z,12.54
2022-09-26T09:56:31.857Z,12.53
2022-09-26T09:57:31.851Z,12.51
2022-09-26T09:58:31.826Z,12.49
2022-09-26T09:59:31.826Z,12.48
2022-09-26T10:00:31.818Z,12.47
2022-09-26T10:01:31.788Z,12.47
2022-09-26T10:02:31.913Z,12.47
2022-09-26T10:03:31.809Z,12.46
2022-09-26T10:04:31.758Z,12.46
2022-09-26T10:05:31.766Z,12.45
2022-09-26T10:06:44.375Z,12.45
2022-09-26T10:07:32.716Z,12.44
2022-09-26T10:08:31.709Z,12.43
2022-09-26T10:09:39.630Z,12.42
2022-09-26T10:10:32.713Z,12.40
2022-09-26T10:11:31.672Z,12.38
2022-09-26T10:12:31.662Z,12.36
2022-09-26T10:13:32.471Z,12.35
2022-09-26T10:14:31.654Z,12.34
2022-09-26T10:15:31.667Z,12.32
2022-09-26T10:16:31.707Z,12.30
2022-09-26T10:17:31.609Z,12.27
2022-09-26T10:18:31.601Z,12.26
2022-09-26T10:19:31.600Z,12.25
2022-09-26T10:20:31.580Z,12.24
2022-09-26T10:21:31.638Z,12.23
2022-09-26T10:22:31.559Z,12.22
2022-09-26T10:23:31.540Z,12.20
2022-09-26T10:24:31.526Z,12.19
2022-09-26T10:25:31.529Z,12.18
2022-09-26T10:26:31.708Z,12.17
2022-09-26T10:27:31.505Z,12.16
2022-09-26T10:28:31.472Z,12.16
2022-09-26T10:29:31.461Z,12.15
2022-09-26T10:30:31.464Z,12.14
2022-09-26T10:31:31.507Z,12.14
2022-09-26T10:32:31.450Z,12.14
2022-09-26T10:33:31.419Z,12.14
2022-09-26T10:34:31.421Z,12.15
2022-09-26T10:35:31.403Z,12.15
2022-09-26T10:36:31.401Z,12.16
2022-09-26T10:37:31.403Z,12.16
2022-09-26T10:38:31.362Z,12.17
2022-09-26T10:39:31.343Z,12.17
2022-09-26T10:40:31.363Z,12.17
2022-09-26T10:41:31.341Z,12.17
2022-09-26T10:42:32.413Z,12.17
2022-09-26T10:43:31.316Z,12.18
2022-09-26T10:44:31.291Z,12.18
2022-09-26T10:45:31.272Z,12.19
2022-09-26T10:46:31.312Z,12.19
2022-09-26T10:47:31.260Z,12.19
2022-09-26T10:48:31.288Z,12.19
2022-09-26T10:49:31.257Z,12.18
2022-09-26T10:50:31.229Z,12.17
2022-09-26T10:51:31.202Z,12.17
2022-09-26T10:52:31.201Z,12.16
2022-09-26T10:53:31.206Z,12.17
2022-09-26T10:54:31.174Z,12.17
2022-09-26T10:55:31.275Z,12.17
2022-09-26T10:56:31.145Z,12.17
2022-09-26T10:57:31.136Z,12.18
2022-09-26T10:58:31.144Z,12.19
2022-09-26T10:59:31.120Z,12.20
2022-09-26T11:00:31.116Z,12.21
2022-09-26T11:01:31.197Z,12.23
2022-09-26T11:02:31.097Z,12.24
2022-09-26T11:03:31.166Z,12.26
2022-09-26T11:04:31.071Z,12.27
2022-09-26T11:05:31.048Z,12.29
2022-09-26T11:06:31.033Z,12.30
2022-09-26T11:07:31.046Z,12.32
2022-09-26T11:08:31.034Z,12.34
2022-09-26T11:09:31.008Z,12.35
2022-09-26T11:10:30.987Z,12.37
2022-09-26T11:11:30.979Z,12.38
2022-09-26T11:12:30.979Z,12.40
2022-09-26T11:13:30.952Z,12.42
2022-09-26T11:14:30.979Z,12.45
2022-09-26T11:15:30.978Z,12.47
2022-09-26T11:16:36.443Z,12.49
2022-09-26T11:17:31.900Z,12.49
2022-09-26T11:18:30.908Z,12.50
2022-09-26T11:19:30.904Z,12.51
2022-09-26T11:20:30.875Z,12.51
2022-09-26T11:21:30.880Z,12.52
2022-09-26T11:22:30.856Z,12.52
2022-09-26T11:23:30.830Z,12.53
2022-09-26T11:24:51.846Z,12.53
2022-09-26T11:25:30.814Z,12.53
2022-09-26T11:26:51.810Z,12.54
2022-09-26T11:28:42.918Z,13.64
2022-09-26T11:30:55.090Z,13.66
2022-09-26T11:32:16.023Z,13.24
2022-09-26T11:32:55.019Z,12.96
2022-09-26T11:34:16.154Z,12.81
2022-09-26T11:36:07.137Z,13.73
2022-09-26T11:37:07.857Z,13.30
2022-09-26T11:38:07.106Z,13.03
2022-09-26T11:39:07.087Z,12.88
2022-09-26T11:40:09.783Z,12.79
2022-09-26T11:41:07.070Z,12.75
2022-09-26T11:42:07.063Z,12.73
2022-09-26T11:43:07.047Z,12.73
2022-09-26T11:44:07.036Z,12.73
2022-09-26T11:45:07.013Z,12.74
2022-09-26T11:46:07.037Z,12.75
2022-09-26T11:47:07.009Z,12.76
2022-09-26T11:48:07.001Z,12.76
2022-09-26T11:49:06.974Z,12.77
2022-09-26T11:50:06.958Z,12.77
2022-09-26T11:51:07.001Z,12.78
2022-09-26T11:52:06.944Z,12.78
2022-09-26T11:53:06.931Z,12.79
2022-09-26T11:54:06.915Z,12.81
2022-09-26T11:55:06.915Z,12.82
2022-09-26T11:56:06.896Z,12.83
2022-09-26T11:57:06.896Z,12.83
2022-09-26T11:58:06.888Z,12.84
2022-09-26T11:59:06.871Z,12.84
2022-09-26T12:00:06.852Z,12.86
2022-09-26T12:01:06.853Z,12.87
2022-09-26T12:02:06.826Z,12.90
2022-09-26T12:03:06.953Z,12.92
2022-09-26T12:04:06.912Z,12.94
2022-09-26T12:05:06.786Z,12.96
2022-09-26T12:06:06.816Z,12.98
2022-09-26T12:07:06.757Z,13.00
2022-09-26T12:08:06.775Z,13.02
2022-09-26T12:09:06.751Z,13.05
2022-09-26T12:10:06.742Z,13.08
2022-09-26T12:11:06.720Z,13.10
2022-09-26T12:12:06.706Z,13.12
2022-09-26T12:13:06.709Z,13.13
2022-09-26T12:14:06.713Z,13.14
2022-09-26T12:15:06.675Z,13.15
2022-09-26T12:16:06.915Z,13.16
2022-09-26T12:17:06.656Z,13.16
2022-09-26T12:18:06.662Z,13.15
2022-09-26T12:19:06.630Z,13.14
2022-09-26T12:20:06.630Z,13.12
2022-09-26T12:21:06.611Z,13.11
2022-09-26T12:22:06.630Z,13.10
2022-09-26T12:23:06.586Z,13.09
2022-09-26T12:24:06.651Z,13.09
2022-09-26T12:25:06.570Z,13.08
2022-09-26T12:26:06.581Z,13.08
2022-09-26T12:27:06.552Z,13.08
2022-09-26T12:28:06.522Z,13.08
2022-09-26T12:29:06.521Z,13.09
2022-09-26T12:30:06.528Z,13.09
2022-09-26T12:31:06.515Z,13.09
2022-09-26T12:32:06.485Z,13.09
2022-09-26T12:33:06.461Z,13.09
2022-09-26T12:34:06.479Z,13.09
2022-09-26T12:35:06.470Z,13.09
2022-09-26T12:36:06.438Z,13.11
2022-09-26T12:37:06.425Z,13.12
2022-09-26T12:38:06.415Z,13.13
2022-09-26T12:39:06.410Z,13.14
2022-09-26T12:40:06.398Z,13.13
2022-09-26T12:41:06.386Z,13.12
2022-09-26T12:42:06.378Z,13.10
2022-09-26T12:43:06.354Z,13.08
2022-09-26T12:44:06.335Z,13.08
2022-09-26T12:45:06.334Z,13.07
2022-09-26T12:46:06.382Z,13.07
2022-09-26T12:47:06.302Z,13.08
2022-09-26T12:48:06.372Z,13.10
2022-09-26T12:49:06.400Z,13.11
2022-09-26T12:50:06.266Z,13.12
2022-09-26T12:51:06.285Z,13.13
2022-09-26T12:52:06.264Z,13.12
2022-09-26T12:53:06.233Z,13.10
2022-09-26T12:54:06.233Z,13.09
2022-09-26T12:55:06.230Z,13.09
2022-09-26T12:56:06.195Z,13.10
2022-09-26T12:57:06.216Z,13.11
2022-09-26T12:58:06.179Z,13.12
2022-09-26T12:59:06.224Z,13.13
2022-09-26T13:00:06.171Z,13.13
2022-09-26T13:01:06.164Z,13.14
2022-09-26T13:02:06.232Z,13.14
2022-09-26T13:03:06.172Z,13.15
2022-09-26T13:04:06.118Z,13.16
2022-09-26T13:05:06.112Z,13.17
2022-09-26T13:06:08.659Z,13.18
2022-09-26T13:07:21.507Z,13.20
2022-09-26T13:08:07.067Z,13.22
2022-09-26T13:09:06.054Z,13.24
2022-09-26T13:10:06.041Z,13.26
2022-09-26T13:11:06.035Z,13.27
2022-09-26T13:12:06.016Z,13.28
2022-09-26T13:13:06.018Z,13.30
2022-09-26T13:14:06.006Z,13.31